Terminal Aerodrome Forecast
Issued by NWS Billings, MT

Home | Current Version | Previous Version | Text Only | Print | Product List | Glossary On
Versions: 1 2 3 4 5 6 7 8 9 10 11 12 13 14 15 16 17 18 19 20 21 22 23 24 25 26 27 28
000
FTUS45 KBYZ 190525
TAFMLS
TAF
KMLS 190525Z 1906/2006 36010KT 1SM -SN BR SCT006 OVC012
     FM190900 02005KT 3SM -SN BR SCT009 OVC012=

USA.gov is the U.S. government's official web portal to all federal, state and local government web resources and services.